createdAt,value
2018-11-02T00:01:36.150Z,8.41
2018-11-02T00:04:05.708Z,8.49
2018-11-02T00:06:35.172Z,8.53
2018-11-02T00:09:04.821Z,8.31
2018-11-02T00:11:34.244Z,8.20
2018-11-02T00:14:03.691Z,8.39
2018-11-02T00:16:33.249Z,8.29
2018-11-02T00:19:02.490Z,8.08
2018-11-02T00:21:31.847Z,8.05
2018-11-02T00:24:01.257Z,8.07
2018-11-02T00:26:30.710Z,7.93
2018-11-02T00:29:01.160Z,8.09
2018-11-02T00:31:31.256Z,8.09
2018-11-02T00:34:01.501Z,7.91
2018-11-02T00:36:31.067Z,7.90
2018-11-02T00:39:00.408Z,7.93
2018-11-02T00:41:29.794Z,7.79
2018-11-02T00:43:59.468Z,7.80
2018-11-02T00:46:28.813Z,7.76
2018-11-02T00:48:58.400Z,7.74
2018-11-02T00:51:27.896Z,7.78
2018-11-02T00:53:57.270Z,7.63
2018-11-02T00:56:28.151Z,7.50
2018-11-02T00:58:57.791Z,7.33
2018-11-02T01:01:27.233Z,7.44
2018-11-02T01:03:56.578Z,7.53
2018-11-02T01:06:26.024Z,7.53
2018-11-02T01:08:55.500Z,7.52
2018-11-02T01:11:24.924Z,7.55
2018-11-02T01:13:54.278Z,7.54
2018-11-02T01:16:23.522Z,7.51
2018-11-02T01:18:53.010Z,7.47
2018-11-02T01:21:22.459Z,7.25
2018-11-02T01:23:51.809Z,7.27
2018-11-02T01:26:21.218Z,7.27
2018-11-02T01:28:50.653Z,7.11
2018-11-02T01:31:20.027Z,7.17
2018-11-02T01:33:49.719Z,7.27
2018-11-02T01:36:19.565Z,7.29
2018-11-02T01:38:49.048Z,7.26
2018-11-02T01:41:18.509Z,7.15
2018-11-02T01:43:48.446Z,7.14
2018-11-02T01:46:17.756Z,7.19
2018-11-02T01:48:47.133Z,7.20
2018-11-02T01:51:16.617Z,7.12
2018-11-02T01:53:46.044Z,6.93
2018-11-02T01:56:15.709Z,7.00
2018-11-02T01:58:45.049Z,6.97
2018-11-02T02:01:14.547Z,6.70
2018-11-02T02:03:44.072Z,6.79
2018-11-02T02:06:13.537Z,6.76
2018-11-02T02:08:43.113Z,6.87
2018-11-02T02:11:12.454Z,6.96
2018-11-02T02:13:41.807Z,6.89
2018-11-02T02:16:11.286Z,6.89
2018-11-02T02:18:40.598Z,6.91
2018-11-02T02:21:09.913Z,6.83
2018-11-02T02:23:39.391Z,6.83
2018-11-02T02:26:08.791Z,6.78
2018-11-02T02:28:38.801Z,6.86
2018-11-02T02:31:08.229Z,6.74
2018-11-02T02:33:37.642Z,6.71
2018-11-02T02:36:07.220Z,6.69
2018-11-02T02:38:36.667Z,6.62
2018-11-02T02:41:06.224Z,6.68
2018-11-02T02:43:35.645Z,6.68
2018-11-02T02:46:05.255Z,6.73
2018-11-02T02:48:35.112Z,6.71
2018-11-02T02:51:04.510Z,6.73
2018-11-02T02:53:33.986Z,6.71
2018-11-02T02:56:03.374Z,6.72
2018-11-02T02:58:32.682Z,6.67
2018-11-02T03:01:02.024Z,6.73
2018-11-02T03:03:31.289Z,6.57
2018-11-02T03:06:00.883Z,6.55
2018-11-02T03:08:30.172Z,6.53
2018-11-02T03:10:59.546Z,6.41
2018-11-02T03:13:28.828Z,6.49
2018-11-02T03:15:58.202Z,6.61
2018-11-02T03:18:27.596Z,6.40
2018-11-02T03:20:56.888Z,6.37
2018-11-02T03:23:26.260Z,6.48
2018-11-02T03:25:55.743Z,6.48
2018-11-02T03:28:25.042Z,6.51
2018-11-02T03:30:54.454Z,6.50
2018-11-02T03:33:23.732Z,6.36
2018-11-02T03:35:53.143Z,6.42
2018-11-02T03:38:22.540Z,6.40
2018-11-02T03:40:51.944Z,6.25
2018-11-02T03:43:21.353Z,6.23
2018-11-02T03:45:50.839Z,6.22
2018-11-02T03:48:20.168Z,6.14
2018-11-02T03:50:49.523Z,6.14
2018-11-02T03:53:18.764Z,6.21
2018-11-02T03:55:49.154Z,6.14
2018-11-02T03:58:18.629Z,6.04
2018-11-02T04:00:48.289Z,5.97
2018-11-02T04:03:17.847Z,5.77
2018-11-02T04:05:47.174Z,5.77
2018-11-02T04:08:16.441Z,5.87
2018-11-02T04:10:46.430Z,5.94
2018-11-02T04:13:15.831Z,6.01
2018-11-02T04:15:45.196Z,5.95
2018-11-02T04:18:14.479Z,5.81
2018-11-02T04:20:43.755Z,5.90
2018-11-02T04:23:13.141Z,6.00
2018-11-02T04:25:42.516Z,6.04
2018-11-02T04:28:11.901Z,5.97
2018-11-02T04:30:41.224Z,5.94
2018-11-02T04:33:10.522Z,5.99
2018-11-02T04:35:39.889Z,5.81
2018-11-02T04:38:09.491Z,5.81
2018-11-02T04:40:38.805Z,5.97
2018-11-02T04:43:08.036Z,6.00
2018-11-02T04:45:41.221Z,5.86
2018-11-02T04:48:12.295Z,5.85
2018-11-02T04:50:42.052Z,5.77
2018-11-02T04:53:11.570Z,5.77
2018-11-02T04:55:40.995Z,5.78
2018-11-02T04:58:10.199Z,5.77
2018-11-02T05:00:40.020Z,5.76
2018-11-02T05:03:09.520Z,5.75
2018-11-02T05:05:39.014Z,5.62
2018-11-02T05:08:08.724Z,5.64
2018-11-02T05:10:37.984Z,5.67
2018-11-02T05:13:07.313Z,5.61
2018-11-02T05:15:36.601Z,5.68
2018-11-02T05:18:06.567Z,5.67
2018-11-02T05:20:36.736Z,5.69
2018-11-02T05:23:06.384Z,5.55
2018-11-02T05:25:35.786Z,5.61
2018-11-02T05:28:05.181Z,5.51
2018-11-02T05:30:34.506Z,5.49
2018-11-02T05:33:03.945Z,5.52
2018-11-02T05:35:33.278Z,5.44
2018-11-02T05:38:02.705Z,5.49
2018-11-02T05:40:32.061Z,5.47
2018-11-02T05:43:01.906Z,5.42
2018-11-02T05:45:31.339Z,5.40
2018-11-02T05:48:00.687Z,5.39
2018-11-02T05:50:30.252Z,5.26
2018-11-02T05:52:59.994Z,5.21
2018-11-02T05:55:29.476Z,5.32
2018-11-02T05:57:59.171Z,5.23
2018-11-02T06:00:29.103Z,5.17
2018-11-02T06:02:58.714Z,5.26
2018-11-02T06:05:28.436Z,5.32
2018-11-02T06:07:57.984Z,5.34
2018-11-02T06:10:27.326Z,5.40
2018-11-02T06:12:56.660Z,5.47
2018-11-02T06:15:26.535Z,5.66
2018-11-02T06:17:56.034Z,5.79
2018-11-02T06:20:25.432Z,5.81
2018-11-02T06:22:54.840Z,5.69
2018-11-02T06:25:24.405Z,5.79
2018-11-02T06:27:53.866Z,5.90
2018-11-02T06:30:23.503Z,5.92
2018-11-02T06:32:53.019Z,5.82
2018-11-02T06:35:22.492Z,5.94
2018-11-02T06:37:51.973Z,6.07
2018-11-02T06:40:21.427Z,6.22
2018-11-02T06:42:50.748Z,6.36
2018-11-02T06:45:20.899Z,6.64
2018-11-02T06:47:50.295Z,6.55
2018-11-02T06:50:19.954Z,6.69
2018-11-02T06:52:49.562Z,6.76
2018-11-02T06:55:19.469Z,6.84
2018-11-02T06:57:49.790Z,6.87
2018-11-02T07:00:19.079Z,6.94
2018-11-02T07:02:48.621Z,6.75
2018-11-02T07:05:17.786Z,6.75
2018-11-02T07:07:48.276Z,6.89
2018-11-02T07:10:17.559Z,6.92
2018-11-02T07:12:47.146Z,7.08
2018-11-02T07:15:16.818Z,7.27
2018-11-02T07:17:46.163Z,7.19
2018-11-02T07:20:15.515Z,7.21
2018-11-02T07:22:44.868Z,7.28
2018-11-02T07:25:14.386Z,7.60
2018-11-02T07:27:43.646Z,7.80
2018-11-02T07:30:13.316Z,8.14
2018-11-02T07:32:42.564Z,8.27
2018-11-02T07:35:12.031Z,8.22
2018-11-02T07:37:41.404Z,8.21
2018-11-02T07:40:12.004Z,7.75
2018-11-02T07:42:41.638Z,8.20
2018-11-02T07:45:12.084Z,8.25
2018-11-02T07:47:41.509Z,8.68
2018-11-02T07:50:12.215Z,8.59
2018-11-02T07:52:41.954Z,8.76
2018-11-02T07:55:13.270Z,8.57
2018-11-02T07:57:42.723Z,8.55
2018-11-02T08:00:13.792Z,8.69
2018-11-02T08:02:46.680Z,8.91
2018-11-02T08:05:17.195Z,8.67
2018-11-02T08:07:46.777Z,8.72
2018-11-02T08:10:16.264Z,9.00
2018-11-02T08:12:45.792Z,9.54
2018-11-02T08:15:15.172Z,9.86
2018-11-02T08:17:44.491Z,10.13
2018-11-02T08:20:14.216Z,10.40
2018-11-02T08:22:44.194Z,10.69
2018-11-02T08:25:13.795Z,9.90
2018-11-02T08:27:43.043Z,9.55
2018-11-02T08:30:12.812Z,9.53
2018-11-02T08:32:42.933Z,9.71
2018-11-02T08:35:14.053Z,10.01
2018-11-02T08:37:43.596Z,10.16
2018-11-02T08:40:14.885Z,10.05
2018-11-02T08:42:44.787Z,10.16
2018-11-02T08:45:14.552Z,10.11
2018-11-02T08:47:43.844Z,10.28
2018-11-02T08:50:13.678Z,10.25
2018-11-02T08:52:43.293Z,10.08
2018-11-02T08:55:12.855Z,10.12
2018-11-02T08:57:42.420Z,10.21
2018-11-02T09:00:13.726Z,10.41
2018-11-02T09:02:44.166Z,10.16
2018-11-02T09:05:13.778Z,10.38
2018-11-02T09:07:43.195Z,10.66
2018-11-02T09:10:13.125Z,10.88
2018-11-02T09:12:42.845Z,11.17
2018-11-02T09:15:12.404Z,11.10
2018-11-02T09:17:41.881Z,10.96
2018-11-02T09:20:11.858Z,11.01
2018-11-02T09:22:41.283Z,11.08
2018-11-02T09:25:11.158Z,11.26
2018-11-02T09:27:40.332Z,11.40
2018-11-02T09:30:13.974Z,11.86
2018-11-02T09:32:43.597Z,12.08
2018-11-02T09:35:13.484Z,12.08
2018-11-02T09:37:43.742Z,12.26
2018-11-02T09:40:13.431Z,12.72
2018-11-02T09:42:42.841Z,12.58
2018-11-02T09:45:13.910Z,13.14
2018-11-02T09:47:44.192Z,13.23
2018-11-02T09:50:14.279Z,13.72
2018-11-02T09:52:43.792Z,13.82
2018-11-02T09:55:15.654Z,13.83
2018-11-02T09:57:46.116Z,13.58
2018-11-02T10:00:15.775Z,13.60
2018-11-02T10:02:45.270Z,13.90
2018-11-02T10:05:14.913Z,14.02
2018-11-02T10:07:44.272Z,13.91
2018-11-02T10:10:14.091Z,13.73
2018-11-02T10:12:44.273Z,13.56
2018-11-02T10:15:15.135Z,13.83
2018-11-02T10:17:44.588Z,13.98
2018-11-02T10:20:13.930Z,13.92
2018-11-02T10:22:43.275Z,14.07
2018-11-02T10:25:12.778Z,14.33
2018-11-02T10:27:43.549Z,14.28
2018-11-02T10:30:13.950Z,14.50
2018-11-02T10:32:44.764Z,14.66
2018-11-02T10:35:14.177Z,14.48
2018-11-02T10:37:43.962Z,15.12
2018-11-02T10:40:16.515Z,15.16
2018-11-02T10:42:50.843Z,15.44
2018-11-02T10:45:21.200Z,16.00
2018-11-02T10:47:51.357Z,15.83
2018-11-02T10:50:20.957Z,16.19
2018-11-02T10:52:50.382Z,16.06
2018-11-02T10:55:19.823Z,16.26
2018-11-02T10:57:49.148Z,16.42
2018-11-02T11:00:23.535Z,16.43
2018-11-02T11:02:53.629Z,16.19
2018-11-02T11:05:24.183Z,15.90
2018-11-02T11:07:53.668Z,15.92
2018-11-02T11:10:23.819Z,15.50
2018-11-02T11:12:53.545Z,15.45
2018-11-02T11:15:22.781Z,15.30
2018-11-02T11:17:52.138Z,15.47
2018-11-02T11:20:21.481Z,15.33
2018-11-02T11:22:50.813Z,15.27
2018-11-02T11:25:20.393Z,15.24
2018-11-02T11:27:49.710Z,15.33
2018-11-02T11:30:20.503Z,15.03
2018-11-02T11:32:50.822Z,15.49
2018-11-02T11:35:21.139Z,15.72
2018-11-02T11:37:51.275Z,15.75
2018-11-02T11:40:21.533Z,15.98
2018-11-02T11:42:50.939Z,16.37
2018-11-02T11:45:20.701Z,16.56
2018-11-02T11:47:50.431Z,16.42
2018-11-02T11:50:21.568Z,16.52
2018-11-02T11:52:51.993Z,16.55
2018-11-02T11:55:22.290Z,16.49
2018-11-02T11:57:52.058Z,16.45
2018-11-02T12:00:22.689Z,16.15
2018-11-02T12:02:52.743Z,16.20
2018-11-02T12:05:23.354Z,16.22
2018-11-02T12:07:52.629Z,16.46
2018-11-02T12:10:24.404Z,16.22
2018-11-02T12:12:54.152Z,15.88
2018-11-02T12:15:24.341Z,16.08
2018-11-02T12:17:53.925Z,15.97
2018-11-02T12:20:25.668Z,16.08
2018-11-02T12:22:56.418Z,15.98
2018-11-02T12:25:25.664Z,15.97
2018-11-02T12:27:55.287Z,16.05
2018-11-02T12:30:24.699Z,16.02
2018-11-02T12:32:54.071Z,15.97
2018-11-02T12:35:23.605Z,16.15
2018-11-02T12:37:53.946Z,16.10
2018-11-02T12:40:24.377Z,16.02
2018-11-02T12:42:55.339Z,16.15
2018-11-02T12:45:24.953Z,16.07
2018-11-02T12:47:54.509Z,16.14
2018-11-02T12:50:26.089Z,16.07
2018-11-02T12:52:57.774Z,16.09
2018-11-02T12:55:27.176Z,16.05
2018-11-02T12:57:56.683Z,15.93
2018-11-02T13:00:27.175Z,15.95
2018-11-02T13:02:56.649Z,15.83
2018-11-02T13:05:26.042Z,15.90
2018-11-02T13:07:55.379Z,15.89
2018-11-02T13:10:25.039Z,15.97
2018-11-02T13:12:54.492Z,15.96
2018-11-02T13:15:24.599Z,15.82
2018-11-02T13:17:53.885Z,15.81
2018-11-02T13:20:23.330Z,15.85
2018-11-02T13:22:52.754Z,15.81
2018-11-02T13:25:22.763Z,15.83
2018-11-02T13:27:52.523Z,15.78
2018-11-02T13:30:22.232Z,15.90
2018-11-02T13:32:51.503Z,15.81
2018-11-02T13:35:21.228Z,15.78
2018-11-02T13:37:51.178Z,15.71
2018-11-02T13:40:20.709Z,15.56
2018-11-02T13:42:51.162Z,15.48
2018-11-02T13:45:20.772Z,15.53
2018-11-02T13:47:50.710Z,15.40
2018-11-02T13:50:20.163Z,15.39
2018-11-02T13:52:50.180Z,15.39
2018-11-02T13:55:19.624Z,15.40
2018-11-02T13:57:48.959Z,15.35
2018-11-02T14:00:19.151Z,15.33
2018-11-02T14:02:48.485Z,15.31
2018-11-02T14:05:18.777Z,15.29
2018-11-02T14:07:48.192Z,15.37
2018-11-02T14:10:17.966Z,15.44
2018-11-02T14:12:48.097Z,15.22
2018-11-02T14:15:18.185Z,15.17
2018-11-02T14:17:47.710Z,15.18
2018-11-02T14:20:17.129Z,15.15
2018-11-02T14:22:46.587Z,15.17
2018-11-02T14:25:18.016Z,15.08
2018-11-02T14:27:48.601Z,15.01
2018-11-02T14:30:18.378Z,14.96
2018-11-02T14:32:48.537Z,14.94
2018-11-02T14:35:18.551Z,14.96
2018-11-02T14:37:48.102Z,15.20
2018-11-02T14:40:17.538Z,15.16
2018-11-02T14:42:47.104Z,15.11
2018-11-02T14:45:16.949Z,15.15
2018-11-02T14:47:47.247Z,15.08
2018-11-02T14:50:17.589Z,15.07
2018-11-02T14:52:47.628Z,15.17
2018-11-02T14:55:17.182Z,15.17
2018-11-02T14:57:46.713Z,14.81
2018-11-02T15:00:16.302Z,14.66
2018-11-02T15:02:45.857Z,14.60
2018-11-02T15:05:15.408Z,14.55
2018-11-02T15:07:45.658Z,14.58
2018-11-02T15:10:16.263Z,14.47
2018-11-02T15:12:45.859Z,14.40
2018-11-02T15:15:15.333Z,14.37
2018-11-02T15:17:44.719Z,14.26
2018-11-02T15:20:15.155Z,14.14
2018-11-02T15:22:44.786Z,14.19
2018-11-02T15:25:14.195Z,14.13
2018-11-02T15:27:44.358Z,14.11
2018-11-02T15:30:15.345Z,14.19
2018-11-02T15:32:45.555Z,14.13
2018-11-02T15:35:15.104Z,14.16
2018-11-02T15:37:45.777Z,14.16
2018-11-02T15:40:15.221Z,14.05
2018-11-02T15:42:44.800Z,13.98
2018-11-02T15:45:15.714Z,14.01
2018-11-02T15:47:46.038Z,13.97
2018-11-02T15:50:15.525Z,13.87
2018-11-02T15:52:45.339Z,13.79
2018-11-02T15:55:14.850Z,13.87
2018-11-02T15:57:45.354Z,13.83
2018-11-02T16:00:17.405Z,13.78
2018-11-02T16:02:47.922Z,13.68
2018-11-02T16:05:17.195Z,13.71
2018-11-02T16:07:46.694Z,13.76
2018-11-02T16:10:16.602Z,13.80
2018-11-02T16:12:46.005Z,13.79
2018-11-02T16:15:15.958Z,13.71
2018-11-02T16:17:45.612Z,13.70
2018-11-02T16:20:15.897Z,13.65
2018-11-02T16:22:45.717Z,13.64
2018-11-02T16:25:15.272Z,13.59
2018-11-02T16:27:44.749Z,13.46
2018-11-02T16:30:14.356Z,13.48
2018-11-02T16:32:43.664Z,13.61
2018-11-02T16:35:13.435Z,13.49
2018-11-02T16:37:42.720Z,13.43
2018-11-02T16:40:13.916Z,13.34
2018-11-02T16:42:44.102Z,13.23
2018-11-02T16:45:14.552Z,13.27
2018-11-02T16:47:44.518Z,13.17
2018-11-02T16:50:15.243Z,13.12
2018-11-02T16:52:45.017Z,13.11
2018-11-02T16:55:14.612Z,13.07
2018-11-02T16:57:44.300Z,13.09
2018-11-02T17:00:16.133Z,13.00
2018-11-02T17:02:46.737Z,12.97
2018-11-02T17:05:16.447Z,13.00
2018-11-02T17:07:46.661Z,12.98
2018-11-02T17:10:16.546Z,13.01
2018-11-02T17:12:46.076Z,12.92
2018-11-02T17:15:15.582Z,13.00
2018-11-02T17:17:45.083Z,12.96
2018-11-02T17:20:15.785Z,12.94
2018-11-02T17:22:45.642Z,12.96
2018-11-02T17:25:15.195Z,12.96
2018-11-02T17:27:44.758Z,12.98
2018-11-02T17:30:15.365Z,12.92
2018-11-02T17:32:44.681Z,12.74
2018-11-02T17:35:15.108Z,12.65
2018-11-02T17:37:44.516Z,12.61
2018-11-02T17:40:15.148Z,12.62
2018-11-02T17:42:45.226Z,12.59
2018-11-02T17:45:14.843Z,12.74
2018-11-02T17:47:45.398Z,12.78
2018-11-02T17:50:16.797Z,12.74
2018-11-02T17:52:47.213Z,12.72
2018-11-02T17:55:16.672Z,12.66
2018-11-02T17:57:46.145Z,12.60
2018-11-02T18:00:16.288Z,12.37
2018-11-02T18:02:45.634Z,12.33
2018-11-02T18:05:15.190Z,12.35
2018-11-02T18:07:44.639Z,12.31
2018-11-02T18:10:14.518Z,12.08
2018-11-02T18:12:43.996Z,12.19
2018-11-02T18:15:13.962Z,12.18
2018-11-02T18:17:43.301Z,12.14
2018-11-02T18:20:14.592Z,12.16
2018-11-02T18:22:44.485Z,12.11
2018-11-02T18:25:14.343Z,12.11
2018-11-02T18:27:44.295Z,12.07
2018-11-02T18:30:14.247Z,12.16
2018-11-02T18:32:44.041Z,12.25
2018-11-02T18:35:13.438Z,12.20
2018-11-02T18:37:43.590Z,12.18
2018-11-02T18:40:13.974Z,12.20
2018-11-02T18:42:44.034Z,12.09
2018-11-02T18:45:14.622Z,12.11
2018-11-02T18:47:44.583Z,12.03
2018-11-02T18:50:16.108Z,11.91
2018-11-02T18:52:46.568Z,11.90
2018-11-02T18:55:16.220Z,11.90
2018-11-02T18:57:45.994Z,11.81
2018-11-02T19:00:15.815Z,11.97
2018-11-02T19:02:45.578Z,11.96
2018-11-02T19:05:17.099Z,11.85
2018-11-02T19:07:46.480Z,11.87
2018-11-02T19:10:15.907Z,11.87
2018-11-02T19:12:45.874Z,11.81
2018-11-02T19:15:19.519Z,11.68
2018-11-02T19:17:49.990Z,11.53
2018-11-02T19:20:19.725Z,11.58
2018-11-02T19:22:49.477Z,11.61
2018-11-02T19:25:19.232Z,11.73
2018-11-02T19:27:49.481Z,11.67
2018-11-02T19:30:19.210Z,11.68
2018-11-02T19:32:48.779Z,11.69
2018-11-02T19:35:18.654Z,11.69
2018-11-02T19:37:48.006Z,11.73
2018-11-02T19:40:19.224Z,11.87
2018-11-02T19:42:49.008Z,11.71
2018-11-02T19:45:18.523Z,11.70
2018-11-02T19:47:55.488Z,11.59
2018-11-02T19:50:24.897Z,11.76
2018-11-02T19:52:55.984Z,11.62
2018-11-02T19:55:25.885Z,11.66
2018-11-02T19:57:55.470Z,11.66
2018-11-02T20:00:24.952Z,11.61
2018-11-02T20:02:54.506Z,11.55
2018-11-02T20:05:24.325Z,11.48
2018-11-02T20:07:54.573Z,11.47
2018-11-02T20:10:25.205Z,11.34
2018-11-02T20:12:54.726Z,11.37
2018-11-02T20:15:25.245Z,11.38
2018-11-02T20:17:55.155Z,11.33
2018-11-02T20:20:25.624Z,11.40
2018-11-02T20:22:55.304Z,11.42
2018-11-02T20:25:25.090Z,11.44
2018-11-02T20:27:56.209Z,11.44
2018-11-02T20:30:26.373Z,11.37
2018-11-02T20:32:56.178Z,11.42
2018-11-02T20:35:25.773Z,11.32
2018-11-02T20:37:55.386Z,11.24
2018-11-02T20:40:24.893Z,11.30
2018-11-02T20:42:54.377Z,11.37
2018-11-02T20:45:23.881Z,11.24
2018-11-02T20:47:54.702Z,11.21
2018-11-02T20:50:25.261Z,11.16
2018-11-02T20:52:54.816Z,11.16
2018-11-02T20:55:24.436Z,11.10
2018-11-02T20:57:53.999Z,11.05
2018-11-02T21:00:25.001Z,11.13
2018-11-02T21:02:54.749Z,11.03
2018-11-02T21:05:24.412Z,11.01
2018-11-02T21:07:55.566Z,10.95
2018-11-02T21:10:25.173Z,10.95
2018-11-02T21:12:54.659Z,10.91
2018-11-02T21:15:25.221Z,10.88
2018-11-02T21:17:54.978Z,10.80
2018-11-02T21:20:26.781Z,10.75
2018-11-02T21:22:57.498Z,10.73
2018-11-02T21:25:28.179Z,10.60
2018-11-02T21:27:58.357Z,10.51
2018-11-02T21:30:29.265Z,10.58
2018-11-02T21:32:59.194Z,10.59
2018-11-02T21:35:28.784Z,10.64
2018-11-02T21:37:58.472Z,10.67
2018-11-02T21:40:28.133Z,10.57
2018-11-02T21:42:57.516Z,10.49
2018-11-02T21:45:26.947Z,10.45
2018-11-02T21:47:56.333Z,10.41
2018-11-02T21:50:25.854Z,10.43
2018-11-02T21:52:55.364Z,10.30
2018-11-02T21:55:24.792Z,10.27
2018-11-02T21:57:54.209Z,10.19
2018-11-02T22:00:23.999Z,10.23
2018-11-02T22:02:53.464Z,10.24
2018-11-02T22:05:23.035Z,10.24
2018-11-02T22:07:53.523Z,10.27
2018-11-02T22:10:22.896Z,10.23
2018-11-02T22:12:52.445Z,10.27
2018-11-02T22:15:21.927Z,10.27
2018-11-02T22:17:51.259Z,10.32
2018-11-02T22:20:21.026Z,10.24
2018-11-02T22:22:50.424Z,10.27
2018-11-02T22:25:19.899Z,10.24
2018-11-02T22:27:49.299Z,10.23
2018-11-02T22:30:18.867Z,10.22
2018-11-02T22:32:48.184Z,10.18
2018-11-02T22:35:17.506Z,10.32
2018-11-02T22:37:46.974Z,10.44
2018-11-02T22:40:16.626Z,10.47
2018-11-02T22:42:46.044Z,10.46
2018-11-02T22:45:16.178Z,10.25
2018-11-02T22:47:50.693Z,10.23
2018-11-02T22:50:19.836Z,10.29
2018-11-02T22:52:49.393Z,10.37
2018-11-02T22:55:18.904Z,10.36
2018-11-02T22:57:48.350Z,10.31
2018-11-02T23:00:19.119Z,10.33
2018-11-02T23:02:49.248Z,10.26
2018-11-02T23:05:19.093Z,10.23
2018-11-02T23:07:48.644Z,10.18
2018-11-02T23:10:17.760Z,10.18
2018-11-02T23:12:46.887Z,9.99
2018-11-02T23:15:16.545Z,9.98
2018-11-02T23:17:46.467Z,9.92
2018-11-02T23:20:15.963Z,9.91
2018-11-02T23:22:45.327Z,9.98
2018-11-02T23:25:14.727Z,9.95
2018-11-02T23:27:45.148Z,9.87
2018-11-02T23:30:14.660Z,9.90
2018-11-02T23:32:44.038Z,9.88
2018-11-02T23:35:14.170Z,9.91
2018-11-02T23:37:44.210Z,9.94
2018-11-02T23:40:13.938Z,9.95
2018-11-02T23:42:43.338Z,9.96
2018-11-02T23:45:13.007Z,9.91
2018-11-02T23:48:48.071Z,10.00
2018-11-02T23:51:17.396Z,9.98
2018-11-02T23:53:46.753Z,10.11
2018-11-02T23:56:16.295Z,10.20
2018-11-02T23:58:45.767Z,10.24
